createdAt,value
2019-03-23T00:01:25.570Z,87.60
2019-03-23T00:03:54.214Z,87.70
2019-03-23T00:06:30.489Z,87.80
2019-03-23T00:08:53.032Z,88.00
2019-03-23T00:11:21.603Z,88.10
2019-03-23T00:13:50.274Z,88.10
2019-03-23T00:16:18.835Z,88.30
2019-03-23T00:18:47.439Z,88.30
2019-03-23T00:21:16.116Z,88.40
2019-03-23T00:23:47.225Z,88.50
2019-03-23T00:26:18.525Z,88.60
2019-03-23T00:28:47.156Z,88.80
2019-03-23T00:31:15.847Z,89.00
2019-03-23T00:33:44.490Z,89.10
2019-03-23T00:36:13.069Z,89.20
2019-03-23T00:38:44.415Z,89.30
2019-03-23T00:41:13.280Z,89.30
2019-03-23T00:43:44.982Z,89.50
2019-03-23T00:46:13.553Z,90.10
2019-03-23T00:48:42.135Z,89.60
2019-03-23T00:51:10.789Z,89.70
2019-03-23T00:53:39.354Z,89.80
2019-03-23T00:56:07.959Z,89.80
2019-03-23T00:58:36.615Z,89.80
2019-03-23T01:01:05.254Z,89.90
2019-03-23T01:03:33.857Z,90.00
2019-03-23T01:06:05.519Z,90.00
2019-03-23T01:08:36.859Z,90.10
2019-03-23T01:11:05.411Z,90.10
2019-03-23T01:13:34.079Z,90.20
2019-03-23T01:16:02.689Z,90.30
2019-03-23T01:18:33.943Z,90.30
2019-03-23T01:21:04.189Z,90.40
2019-03-23T01:23:34.427Z,90.40
2019-03-23T01:26:06.116Z,90.50
2019-03-23T01:28:34.703Z,90.60
2019-03-23T01:31:07.677Z,90.60
2019-03-23T01:33:36.269Z,90.70
2019-03-23T01:36:04.924Z,90.70
2019-03-23T01:38:33.530Z,90.80
2019-03-23T01:41:02.172Z,90.80
2019-03-23T01:43:30.737Z,90.90
2019-03-23T01:45:59.328Z,90.90
2019-03-23T01:48:27.896Z,90.90
2019-03-23T01:50:56.559Z,91.00
2019-03-23T01:53:28.108Z,91.00
2019-03-23T01:55:56.649Z,91.00
2019-03-23T01:58:26.803Z,91.00
2019-03-23T02:00:55.374Z,91.10
2019-03-23T02:03:23.977Z,91.10
2019-03-23T02:05:52.536Z,91.10
2019-03-23T02:08:22.742Z,91.10
2019-03-23T02:10:51.397Z,91.10
2019-03-23T02:13:19.982Z,91.10
2019-03-23T02:15:48.591Z,91.10
2019-03-23T02:18:17.246Z,91.20
2019-03-23T02:20:45.835Z,91.20
2019-03-23T02:23:16.506Z,91.20
2019-03-23T02:25:47.936Z,91.30
2019-03-23T02:28:20.491Z,91.30
2019-03-23T02:30:49.062Z,91.40
2019-03-23T02:33:20.546Z,91.50
2019-03-23T02:35:49.152Z,91.50
2019-03-23T02:38:17.757Z,91.60
2019-03-23T02:40:46.478Z,91.60
2019-03-23T02:43:15.106Z,91.60
2019-03-23T02:45:43.761Z,91.70
2019-03-23T02:48:12.372Z,91.60
2019-03-23T02:50:40.936Z,91.60
2019-03-23T02:53:09.539Z,91.60
2019-03-23T02:55:38.119Z,91.60
2019-03-23T02:58:08.224Z,91.80
2019-03-23T03:00:37.208Z,91.70
2019-03-23T03:03:05.846Z,91.70
2019-03-23T03:05:34.476Z,91.60
2019-03-23T03:08:03.064Z,91.60
2019-03-23T03:10:41.716Z,91.50
2019-03-23T03:13:13.447Z,91.60
2019-03-23T03:15:42.000Z,91.60
2019-03-23T03:18:10.695Z,91.60
2019-03-23T03:20:39.393Z,91.60
2019-03-23T03:23:08.082Z,91.60
2019-03-23T03:25:36.712Z,91.60
2019-03-23T03:28:08.239Z,91.60
2019-03-23T03:30:36.831Z,91.60
2019-03-23T03:33:05.487Z,91.60
2019-03-23T03:35:34.144Z,91.60
2019-03-23T03:38:05.800Z,91.60
2019-03-23T03:40:36.433Z,91.70
2019-03-23T03:43:05.150Z,91.70
2019-03-23T03:45:33.778Z,91.70
2019-03-23T03:48:02.369Z,91.80
2019-03-23T03:50:32.583Z,91.70
2019-03-23T03:53:01.148Z,91.70
2019-03-23T03:55:31.368Z,91.70
2019-03-23T03:57:59.953Z,91.80
2019-03-23T04:00:28.540Z,91.80
2019-03-23T04:02:57.125Z,91.80
2019-03-23T04:05:25.952Z,91.90
2019-03-23T04:07:54.645Z,91.90
2019-03-23T04:10:23.211Z,91.90
2019-03-23T04:12:51.802Z,91.90
2019-03-23T04:15:20.372Z,91.90
2019-03-23T04:17:48.942Z,91.90
2019-03-23T04:20:21.978Z,91.90
2019-03-23T04:22:53.379Z,91.90
2019-03-23T04:25:21.972Z,92.00
2019-03-23T04:27:52.653Z,92.00
2019-03-23T04:30:22.853Z,92.00
2019-03-23T04:32:51.474Z,92.10
2019-03-23T04:35:20.029Z,92.10
2019-03-23T04:37:48.635Z,92.20
2019-03-23T04:40:17.315Z,92.20
2019-03-23T04:42:46.017Z,92.30
2019-03-23T04:45:14.754Z,92.30
2019-03-23T04:47:43.312Z,92.30
2019-03-23T04:50:12.457Z,92.30
2019-03-23T04:52:43.993Z,92.30
2019-03-23T04:55:14.769Z,92.30
2019-03-23T04:57:43.535Z,92.40
2019-03-23T05:00:15.117Z,92.30
2019-03-23T05:02:45.253Z,92.40
2019-03-23T05:05:16.634Z,92.40
2019-03-23T05:07:45.255Z,92.50
2019-03-23T05:10:14.102Z,92.50
2019-03-23T05:12:42.673Z,92.40
2019-03-23T05:15:11.461Z,92.40
2019-03-23T05:17:40.114Z,92.40
2019-03-23T05:20:10.545Z,92.40
2019-03-23T05:22:39.252Z,92.50
2019-03-23T05:25:09.431Z,92.60
2019-03-23T05:27:38.054Z,92.60
2019-03-23T05:30:07.929Z,92.50
2019-03-23T05:32:36.490Z,92.60
2019-03-23T05:35:08.182Z,92.50
2019-03-23T05:37:46.319Z,92.50
2019-03-23T05:40:17.744Z,92.50
2019-03-23T05:42:52.222Z,92.50
2019-03-23T05:45:21.112Z,92.40
2019-03-23T05:47:52.544Z,92.40
2019-03-23T05:50:21.188Z,92.40
2019-03-23T05:52:51.300Z,92.40
2019-03-23T05:55:19.959Z,92.30
2019-03-23T05:57:48.538Z,92.30
2019-03-23T06:00:18.184Z,92.30
2019-03-23T06:02:46.753Z,92.30
2019-03-23T06:05:15.436Z,92.20
2019-03-23T06:07:44.007Z,92.20
2019-03-23T06:10:12.711Z,92.20
2019-03-23T06:12:41.293Z,92.20
2019-03-23T06:15:10.408Z,92.10
2019-03-23T06:17:38.992Z,92.10
2019-03-23T06:20:09.206Z,92.10
2019-03-23T06:22:37.771Z,92.10
2019-03-23T06:25:07.508Z,92.00
2019-03-23T06:27:36.069Z,92.10
2019-03-23T06:30:07.018Z,92.10
2019-03-23T06:32:36.118Z,92.10
2019-03-23T06:35:08.433Z,92.20
2019-03-23T06:37:38.694Z,92.20
2019-03-23T06:40:11.140Z,92.10
2019-03-23T06:42:39.932Z,92.10
2019-03-23T06:45:10.439Z,92.20
2019-03-23T06:47:39.076Z,92.20
2019-03-23T06:50:09.823Z,92.20
2019-03-23T06:52:38.406Z,92.20
2019-03-23T06:55:11.063Z,92.20
2019-03-23T06:57:39.633Z,92.20
2019-03-23T07:00:12.073Z,92.10
2019-03-23T07:02:40.661Z,92.20
2019-03-23T07:05:10.381Z,92.20
2019-03-23T07:07:39.030Z,92.20
2019-03-23T07:10:09.637Z,92.20
2019-03-23T07:12:41.046Z,92.20
2019-03-23T07:15:19.376Z,92.20
2019-03-23T07:17:42.119Z,92.20
2019-03-23T07:20:12.811Z,92.20
2019-03-23T07:22:41.494Z,92.30
2019-03-23T07:25:11.275Z,92.30
2019-03-23T07:27:46.238Z,92.30
2019-03-23T07:30:21.664Z,92.30
2019-03-23T07:32:53.231Z,92.30
2019-03-23T07:35:23.340Z,92.70
2019-03-23T07:37:53.548Z,92.20
2019-03-23T07:40:22.140Z,92.20
2019-03-23T07:42:53.050Z,92.00
2019-03-23T07:45:21.740Z,92.00
2019-03-23T07:47:50.303Z,91.90
2019-03-23T07:50:18.870Z,91.80
2019-03-23T07:52:47.464Z,91.70
2019-03-23T07:55:16.685Z,91.70
2019-03-23T07:57:46.377Z,91.60
2019-03-23T08:00:22.486Z,91.60
2019-03-23T08:02:51.154Z,91.50
2019-03-23T08:05:19.802Z,91.50
2019-03-23T08:07:48.434Z,91.40
2019-03-23T08:10:28.090Z,91.40
2019-03-23T08:12:56.756Z,91.40
2019-03-23T08:15:25.403Z,91.30
2019-03-23T08:17:54.252Z,91.30
2019-03-23T08:20:25.664Z,91.30
2019-03-23T08:22:55.783Z,91.30
2019-03-23T08:25:24.721Z,91.20
2019-03-23T08:27:53.298Z,91.20
2019-03-23T08:30:21.953Z,91.20
2019-03-23T08:32:50.627Z,91.20
2019-03-23T08:35:21.096Z,91.20
2019-03-23T08:37:49.741Z,91.10
2019-03-23T08:40:18.332Z,91.10
2019-03-23T08:42:46.985Z,91.00
2019-03-23T08:45:15.994Z,91.00
2019-03-23T08:47:46.118Z,90.80
2019-03-23T08:50:16.236Z,90.40
2019-03-23T08:52:46.357Z,90.70
2019-03-23T08:55:16.465Z,90.60
2019-03-23T08:57:45.205Z,91.00
2019-03-23T09:00:13.849Z,90.90
2019-03-23T09:02:43.626Z,90.60
2019-03-23T09:05:12.269Z,90.70
2019-03-23T09:07:43.812Z,90.80
2019-03-23T09:10:20.070Z,90.30
2019-03-23T09:12:53.910Z,90.40
2019-03-23T09:15:22.950Z,90.70
2019-03-23T09:17:51.507Z,90.60
2019-03-23T09:20:20.103Z,90.40
2019-03-23T09:22:48.710Z,90.40
2019-03-23T09:25:20.422Z,90.40
2019-03-23T09:27:49.119Z,90.40
2019-03-23T09:30:17.858Z,90.60
2019-03-23T09:32:46.488Z,90.60
2019-03-23T09:35:15.159Z,89.80
2019-03-23T09:37:43.748Z,90.10
2019-03-23T09:40:12.484Z,90.00
2019-03-23T09:42:41.501Z,88.30
2019-03-23T09:45:10.594Z,88.60
2019-03-23T09:47:39.924Z,89.60
2019-03-23T09:50:10.357Z,89.80
2019-03-23T09:52:38.963Z,89.20
2019-03-23T09:55:09.083Z,90.30
2019-03-23T09:57:37.728Z,89.60
2019-03-23T10:00:11.800Z,89.50
2019-03-23T10:02:41.798Z,89.30
2019-03-23T10:05:11.892Z,87.60
2019-03-23T10:07:47.551Z,87.30
2019-03-23T10:10:21.846Z,88.20
2019-03-23T10:12:46.819Z,88.10
2019-03-23T10:15:18.446Z,88.40
2019-03-23T10:17:47.003Z,88.70
2019-03-23T10:20:24.374Z,88.10
2019-03-23T10:22:54.486Z,88.00
2019-03-23T10:25:23.098Z,87.80
2019-03-23T10:27:51.668Z,86.80
2019-03-23T10:30:20.238Z,86.30
2019-03-23T10:32:48.820Z,85.90
2019-03-23T10:35:17.484Z,85.00
2019-03-23T10:37:46.066Z,84.90
2019-03-23T10:40:14.703Z,84.90
2019-03-23T10:42:43.521Z,83.30
2019-03-23T10:45:12.321Z,83.00
2019-03-23T10:47:41.739Z,84.40
2019-03-23T10:50:10.481Z,85.60
2019-03-23T10:52:39.141Z,86.00
2019-03-23T10:55:10.313Z,86.20
2019-03-23T10:57:40.638Z,84.00
2019-03-23T11:00:11.803Z,83.50
2019-03-23T11:02:40.449Z,83.00
2019-03-23T11:05:11.055Z,81.70
2019-03-23T11:07:40.075Z,81.80
2019-03-23T11:10:11.208Z,82.40
2019-03-23T11:12:42.521Z,82.60
2019-03-23T11:15:11.370Z,83.50
2019-03-23T11:17:46.945Z,82.70
2019-03-23T11:20:15.923Z,81.90
2019-03-23T11:22:44.562Z,81.40
2019-03-23T11:25:13.479Z,80.50
2019-03-23T11:27:42.171Z,80.20
2019-03-23T11:30:12.793Z,79.50
2019-03-23T11:32:41.370Z,79.40
2019-03-23T11:35:12.563Z,79.50
2019-03-23T11:37:44.014Z,78.80
2019-03-23T11:40:12.845Z,80.00
2019-03-23T11:42:49.393Z,81.50
2019-03-23T11:45:12.071Z,80.20
2019-03-23T11:47:40.788Z,79.50
2019-03-23T11:50:09.925Z,80.10
2019-03-23T11:52:39.265Z,79.60
2019-03-23T11:55:08.473Z,81.20
2019-03-23T11:57:37.541Z,79.40
2019-03-23T12:00:14.057Z,79.60
2019-03-23T12:02:43.535Z,80.00
2019-03-23T12:05:12.570Z,76.90
2019-03-23T12:07:41.207Z,77.90
2019-03-23T12:10:18.910Z,76.30
2019-03-23T12:12:50.887Z,75.50
2019-03-23T12:15:19.692Z,75.70
2019-03-23T12:17:48.923Z,75.00
2019-03-23T12:20:17.508Z,75.20
2019-03-23T12:22:46.981Z,74.00
2019-03-23T12:25:18.485Z,68.90
2019-03-23T12:27:47.154Z,66.60
2019-03-23T12:30:17.270Z,67.10
2019-03-23T12:32:45.910Z,67.10
2019-03-23T12:35:17.277Z,66.10
2019-03-23T12:37:45.838Z,65.50
2019-03-23T12:40:17.058Z,67.90
2019-03-23T12:42:45.787Z,69.40
2019-03-23T12:45:14.988Z,70.40
2019-03-23T12:47:43.576Z,70.20
2019-03-23T12:50:15.950Z,69.70
2019-03-23T12:52:47.180Z,69.50
2019-03-23T12:55:30.838Z,69.30
2019-03-23T12:58:13.907Z,71.70
2019-03-23T13:00:42.466Z,65.50
2019-03-23T13:03:11.042Z,63.50
2019-03-23T13:05:39.631Z,63.70
2019-03-23T13:08:08.188Z,62.40
2019-03-23T13:10:36.751Z,63.20
2019-03-23T13:13:05.371Z,65.00
2019-03-23T13:15:33.969Z,65.70
2019-03-23T13:18:03.184Z,61.80
2019-03-23T13:20:31.964Z,62.20
2019-03-23T13:23:00.614Z,62.90
2019-03-23T13:25:29.405Z,62.40
2019-03-23T13:27:57.977Z,63.40
2019-03-23T13:30:26.771Z,62.90
2019-03-23T13:32:55.341Z,62.00
2019-03-23T13:35:23.913Z,62.00
2019-03-23T13:37:54.488Z,59.90
2019-03-23T13:40:22.721Z,59.50
2019-03-23T13:42:51.298Z,61.90
2019-03-23T13:45:20.795Z,64.20
2019-03-23T13:47:49.369Z,64.00
2019-03-23T13:50:21.046Z,64.80
2019-03-23T13:52:49.711Z,63.70
2019-03-23T13:55:29.083Z,64.00
2019-03-23T13:58:00.726Z,63.40
2019-03-23T14:00:29.287Z,63.20
2019-03-23T14:02:58.787Z,62.40
2019-03-23T14:05:27.357Z,62.10
2019-03-23T14:07:55.931Z,62.50
2019-03-23T14:10:24.536Z,61.40
2019-03-23T14:12:53.404Z,60.40
2019-03-23T14:15:21.979Z,60.30
2019-03-23T14:17:50.580Z,59.80
2019-03-23T14:20:19.133Z,59.30
2019-03-23T14:22:47.704Z,60.60
2019-03-23T14:25:16.298Z,60.20
2019-03-23T14:27:44.879Z,60.00
2019-03-23T14:33:14.418Z,59.50
2019-03-23T14:35:54.558Z,58.00
2019-03-23T14:38:28.952Z,57.70
2019-03-23T14:40:58.398Z,58.10
2019-03-23T14:43:26.968Z,57.30
2019-03-23T14:45:58.920Z,55.70
2019-03-23T14:48:42.227Z,55.40
2019-03-23T14:51:24.186Z,55.10
2019-03-23T14:53:52.966Z,55.00
2019-03-23T14:56:23.149Z,54.20
2019-03-23T14:58:53.274Z,54.10
2019-03-23T15:01:24.585Z,53.80
2019-03-23T15:03:55.584Z,53.40
2019-03-23T15:06:25.700Z,54.80
2019-03-23T15:08:56.933Z,55.80
2019-03-23T15:11:25.544Z,55.80
2019-03-23T15:13:54.110Z,55.50
2019-03-23T15:16:25.465Z,56.00
2019-03-23T15:18:54.040Z,56.80
2019-03-23T15:21:24.209Z,55.70
2019-03-23T15:23:52.857Z,54.90
2019-03-23T15:26:27.219Z,56.10
2019-03-23T15:28:55.813Z,54.30
2019-03-23T15:31:24.403Z,54.00
2019-03-23T15:34:01.087Z,54.60
2019-03-23T15:36:35.291Z,54.80
2019-03-23T15:39:05.385Z,54.60
2019-03-23T15:41:33.993Z,53.60
2019-03-23T15:44:02.648Z,53.10
2019-03-23T15:46:38.149Z,52.50
2019-03-23T15:49:11.064Z,51.70
2019-03-23T15:51:40.483Z,52.20
2019-03-23T15:54:09.154Z,51.80
2019-03-23T15:56:37.734Z,52.20
2019-03-23T15:59:08.284Z,51.90
2019-03-23T16:01:36.861Z,51.70
2019-03-23T16:04:08.171Z,51.60
2019-03-23T16:06:39.431Z,51.50
2019-03-23T16:09:08.001Z,51.70
2019-03-23T16:11:39.547Z,50.80
2019-03-23T16:14:08.225Z,50.10
2019-03-23T16:16:36.788Z,49.70
2019-03-23T16:19:05.402Z,49.70
2019-03-23T16:21:33.971Z,49.50
2019-03-23T16:24:02.613Z,49.80
2019-03-23T16:26:31.232Z,49.70
2019-03-23T16:28:59.896Z,49.80
2019-03-23T16:31:28.602Z,49.80
2019-03-23T16:33:57.134Z,49.80
2019-03-23T16:36:25.720Z,49.50
2019-03-23T16:38:55.693Z,49.50
2019-03-23T16:41:24.214Z,49.30
2019-03-23T16:43:52.820Z,49.40
2019-03-23T16:46:21.476Z,49.60
2019-03-23T16:48:50.048Z,49.60
2019-03-23T16:51:18.646Z,49.60
2019-03-23T16:53:50.180Z,50.40
2019-03-23T16:56:18.867Z,51.50
2019-03-23T16:58:47.520Z,52.20
2019-03-23T17:01:16.113Z,52.60
2019-03-23T17:03:46.599Z,53.20
2019-03-23T17:06:15.116Z,53.00
2019-03-23T17:08:45.217Z,53.00
2019-03-23T17:11:13.792Z,51.90
2019-03-23T17:13:42.396Z,52.10
2019-03-23T17:16:11.041Z,51.60
2019-03-23T17:18:39.626Z,52.00
2019-03-23T17:21:08.216Z,52.20
2019-03-23T17:23:36.841Z,52.50
2019-03-23T17:26:05.496Z,52.70
2019-03-23T17:28:34.144Z,52.80
2019-03-23T17:31:02.772Z,52.80
2019-03-23T17:33:31.450Z,53.30
2019-03-23T17:36:00.065Z,53.80
2019-03-23T17:38:28.674Z,54.50
2019-03-23T17:40:57.291Z,55.10
2019-03-23T17:43:25.937Z,55.60
2019-03-23T17:45:54.507Z,56.30
2019-03-23T17:48:23.115Z,56.80
2019-03-23T17:50:51.689Z,57.30
2019-03-23T17:53:22.618Z,57.70
2019-03-23T17:55:51.276Z,58.10
2019-03-23T17:58:19.860Z,58.40
2019-03-23T18:00:48.543Z,58.10
2019-03-23T18:03:17.113Z,58.30
2019-03-23T18:05:45.754Z,58.40
2019-03-23T18:08:14.502Z,58.50
2019-03-23T18:10:43.076Z,58.80
2019-03-23T18:13:16.933Z,59.00
2019-03-23T18:15:45.565Z,59.10
2019-03-23T18:18:15.676Z,59.10
2019-03-23T18:20:44.281Z,59.20
2019-03-23T18:23:12.910Z,59.40
2019-03-23T18:25:41.547Z,59.90
2019-03-23T18:28:13.247Z,60.00
2019-03-23T18:30:43.344Z,60.30
2019-03-23T18:33:17.447Z,60.50
2019-03-23T18:35:52.992Z,60.50
2019-03-23T18:38:36.190Z,60.80
2019-03-23T18:41:08.246Z,60.90
2019-03-23T18:43:36.973Z,61.10
2019-03-23T18:46:05.628Z,61.20
2019-03-23T18:48:38.236Z,61.50
2019-03-23T18:51:07.162Z,61.90
2019-03-23T18:53:35.746Z,61.80
2019-03-23T18:56:04.452Z,62.00
2019-03-23T18:58:34.807Z,62.00
2019-03-23T19:01:03.442Z,62.30
2019-03-23T19:03:32.040Z,62.50
2019-03-23T19:06:00.619Z,62.80
2019-03-23T19:08:29.184Z,62.80
2019-03-23T19:11:03.009Z,63.10
2019-03-23T19:13:37.877Z,63.10
2019-03-23T19:16:01.875Z,63.30
2019-03-23T19:18:39.374Z,64.30
2019-03-23T19:21:08.051Z,63.90
2019-03-23T19:23:39.781Z,63.90
2019-03-23T19:26:11.502Z,64.00
2019-03-23T19:28:40.192Z,64.30
2019-03-23T19:31:08.838Z,64.40
2019-03-23T19:33:37.404Z,64.60
2019-03-23T19:36:07.558Z,64.60
2019-03-23T19:38:38.804Z,64.60
2019-03-23T19:41:07.391Z,64.70
2019-03-23T19:43:35.971Z,65.00
2019-03-23T19:46:04.592Z,65.10
2019-03-23T19:48:33.212Z,65.30
2019-03-23T19:51:03.706Z,66.30
2019-03-23T19:53:32.123Z,66.40
2019-03-23T19:56:00.761Z,66.50
2019-03-23T19:58:29.341Z,66.50
2019-03-23T20:00:57.959Z,66.30
2019-03-23T20:03:27.454Z,66.40
2019-03-23T20:05:58.764Z,66.20
2019-03-23T20:08:27.347Z,66.00
2019-03-23T20:10:57.791Z,66.30
2019-03-23T20:13:29.414Z,66.60
2019-03-23T20:15:57.971Z,66.80
2019-03-23T20:18:26.604Z,67.10
2019-03-23T20:20:55.220Z,67.30
2019-03-23T20:23:23.796Z,67.50
2019-03-23T20:25:52.389Z,67.70
2019-03-23T20:28:21.024Z,67.80
2019-03-23T20:30:49.674Z,67.80
2019-03-23T20:33:19.670Z,68.10
2019-03-23T20:36:12.212Z,68.30
2019-03-23T20:41:37.418Z,69.90
2019-03-23T20:44:41.972Z,72.00
2019-03-23T20:47:13.094Z,73.20
2019-03-23T20:49:43.424Z,75.00
2019-03-23T20:52:13.940Z,76.00
2019-03-23T20:54:42.698Z,77.40
2019-03-23T20:57:24.096Z,78.00
2019-03-23T20:59:52.046Z,78.40
2019-03-23T21:02:20.647Z,78.70
2019-03-23T21:04:50.937Z,78.90
2019-03-23T21:07:19.549Z,78.40
2019-03-23T21:09:48.127Z,78.40
2019-03-23T21:12:16.931Z,78.20
2019-03-23T21:14:45.602Z,77.80
2019-03-23T21:17:14.242Z,77.70
2019-03-23T21:19:44.372Z,77.60
2019-03-23T21:22:12.946Z,77.60
2019-03-23T21:24:41.609Z,77.50
2019-03-23T21:27:10.904Z,77.60
2019-03-23T21:29:41.207Z,77.60
2019-03-23T21:32:12.625Z,78.10
2019-03-23T21:34:41.202Z,77.70
2019-03-23T21:37:09.790Z,77.90
2019-03-23T21:39:38.375Z,78.20
2019-03-23T21:42:07.157Z,79.40
2019-03-23T21:44:35.735Z,80.20
2019-03-23T21:47:04.387Z,80.80
2019-03-23T21:49:32.992Z,80.90
2019-03-23T21:52:01.575Z,81.90
2019-03-23T21:54:30.786Z,82.50
2019-03-23T21:56:59.681Z,83.00
2019-03-23T21:59:30.182Z,84.20
2019-03-23T22:01:58.635Z,85.40
2019-03-23T22:04:27.260Z,86.20
2019-03-23T22:06:55.998Z,87.40
2019-03-23T22:09:24.596Z,89.00
2019-03-23T22:11:53.167Z,89.80
2019-03-23T22:14:21.853Z,90.00
2019-03-23T22:16:51.349Z,91.10
2019-03-23T22:19:20.014Z,91.50
2019-03-23T22:21:48.572Z,92.10
2019-03-23T22:24:17.166Z,92.50
2019-03-23T22:26:47.420Z,92.70
2019-03-23T22:29:16.007Z,92.90
2019-03-23T22:31:44.595Z,93.00
2019-03-23T22:34:13.154Z,91.90
2019-03-23T22:36:41.724Z,91.80
2019-03-23T22:39:10.335Z,92.60
2019-03-23T22:41:38.916Z,92.60
2019-03-23T22:44:07.686Z,93.10
2019-03-23T22:46:36.378Z,93.40
2019-03-23T22:49:05.116Z,93.20
2019-03-23T22:51:33.736Z,93.30
2019-03-23T22:54:02.716Z,93.20
2019-03-23T22:56:31.345Z,93.80
2019-03-23T22:59:00.297Z,94.40
2019-03-23T23:01:32.079Z,94.50
2019-03-23T23:04:02.672Z,94.90
2019-03-23T23:06:39.153Z,94.50
2019-03-23T23:09:18.683Z,94.20
2019-03-23T23:11:58.339Z,94.40
2019-03-23T23:14:35.312Z,94.40
2019-03-23T23:17:12.627Z,94.10
2019-03-23T23:19:42.340Z,93.50
2019-03-23T23:22:11.008Z,93.10
2019-03-23T23:24:50.478Z,92.70
2019-03-23T23:27:19.169Z,92.50
2019-03-23T23:29:47.819Z,92.30
2019-03-23T23:32:17.372Z,92.00
2019-03-23T23:34:46.048Z,91.90
2019-03-23T23:37:16.305Z,91.70
2019-03-23T23:39:44.915Z,91.60
2019-03-23T23:42:13.792Z,91.30
2019-03-23T23:44:42.373Z,91.40
2019-03-23T23:47:10.965Z,91.30
2019-03-23T23:49:39.566Z,91.20
2019-03-23T23:52:08.248Z,91.10
2019-03-23T23:54:36.824Z,91.10
2019-03-23T23:57:11.085Z,91.20
2019-03-23T23:59:39.683Z,91.20
